Zion National Park, Utah
Current Conditions -  °F | °C
As of 8:15 PM on Thursday 18 Dec 2014 (Local Time) from KAZC Reporting Station
Clear Clear  
Wind Chill: 33°   Ceiling: Unl
Heat Index: 33°   Visibility: 10mi
Dew Point: 32°   Wind: 3mph
Humidity: 96%   Direction: 150°SSE
Pressure: 30.23"   Gusts: NA
Location:  37.1888°N, 113°W
Report Text: KAZC 190315Z AUTO 15003KT 10SM CLR 00/00 A3023 RMK AO2 T00031002
Loading
Personal Weather Stations






























Interactive Weather Map New forecast layout! Learn more

10-Day Weather Forecast

Advertisements
Track Severe Weather on mobile